Time;durP1;ratioP1;P1;durP2;ratioP2;P2;SDS_P1;SDS_P2;PMS_P1;PMS_P2;Temp;Humidity;BMP_temperature;BMP_pressure;BME280_temperature;BME280_humidity;BME280_pressure;Samples;Min_cycle;Max_cycle;Signal;HPM_P1;HPM_P2
2023/01/01 00:02:01;;;;;;;;;;;;;;;-146.02;100.00;65310.94;6309372;22;19969;-67
2023/01/01 00:04:27;;;;;;;;;;;;;;;-146.02;100.00;65310.94;6309647;22;19914;-67
2023/01/01 00:06:53;;;;;;;;;;;;;;;-146.02;100.00;65310.94;6309462;22;19907;-67
2023/01/01 00:12:02;;;;;;;;;;;;;;;-146.02;100.00;65310.94;6309703;22;19907;-67
2023/01/01 00:14:27;;;;;;;;;;;;;;;-146.02;100.00;65310.94;6308672;22;20292;-66
2023/01/01 00:16:53;;;;;;;;;;;;;;;-146.02;100.00;65310.94;6309476;22;19914;-67
2023/01/01 00:19:18;;;;;;;;;;;;;;;-146.02;100.00;65310.94;6309596;22;19934;-67
2023/01/01 00:21:45;;;;;;;;;;;;;;;-146.02;100.00;65310.94;6308815;22;20316;-67
2023/01/01 00:24:10;;;;;;;;;;;;;;;-146.02;100.00;65310.94;6308903;22;19907;-67
2023/01/01 00:26:36;;;;;;;;;;;;;;;-146.02;100.00;65310.94;6309819;22;19913;-67
2023/01/01 00:29:02;;;;;;;;;;;;;;;-146.02;100.00;65310.94;6309428;22;20238;-67
2023/01/01 00:31:27;;;;;;;;;;;;;;;-146.02;100.00;65310.94;6308332;22;19915;-67
2023/01/01 00:33:53;;;;;;;;;;;;;;;-146.02;100.00;65310.94;6282476;22;19906;-67
2023/01/01 00:36:19;;;;;;;;;;;;;;;-146.02;100.00;65310.94;6309432;22;19985;-67
2023/01/01 00:38:44;;;;;;;;;;;;;;;-146.02;100.00;65310.94;6309428;22;19907;-67
2023/01/01 00:41:10;;;;;;;;;;;;;;;-146.02;100.00;65310.94;6309187;22;19946;-67
2023/01/01 00:43:36;;;;;;;;;;;;;;;-146.02;100.00;65310.94;6308438;22;19914;-67
2023/01/01 00:46:02;;;;;;;;;;;;;;;-146.02;100.00;65310.94;6308254;22;20270;-67
2023/01/01 00:48:27;;;;;;;;;;;;;;;-146.02;100.00;65310.94;6308495;22;19967;-67
2023/01/01 00:50:53;;;;;;;;;;;;;;;-146.02;100.00;65310.94;6308330;22;20265;-67
2023/01/01 00:53:19;;;;;;;;;;;;;;;-146.02;100.00;65310.94;6308516;22;19934;-67
2023/01/01 00:55:46;;;;;;;;;;;;;;;-146.02;100.00;65310.94;6281353;22;20346;-67
2023/01/01 00:58:11;;;;;;;;;;;;;;;-146.02;100.00;65310.94;6308552;22;19914;-67
2023/01/01 01:00:36;;;;;;;;;;;;;;;-146.02;100.00;65310.94;6308146;22;19960;-67
2023/01/01 01:03:02;;;;;;;;;;;;;;;-146.02;100.00;65310.94;6307914;22;19911;-66
2023/01/01 01:05:27;;;;;;;;;;;;;;;-146.02;100.00;65310.94;6308035;22;19907;-67
2023/01/01 01:07:53;;;;;;;;;;;;;;;-146.02;100.00;65310.94;6308228;22;19907;-66
2023/01/01 01:10:21;;;;;;;;;;;;;;;-146.02;100.00;65310.94;6281248;22;19910;-66
2023/01/01 01:12:46;;;;;;;;;;;;;;;-146.02;100.00;65310.94;6308178;22;19957;-66
2023/01/01 01:15:12;;;;;;;;;;;;;;;-146.02;100.00;65310.94;6308447;22;19910;-66
2023/01/01 01:17:37;;;;;;;;;;;;;;;-146.02;100.00;65310.94;6308010;22;20376;-66
2023/01/01 01:20:03;;;;;;;;;;;;;;;-146.02;100.00;65310.94;6280805;22;19914;-66
2023/01/01 01:22:28;;;;;;;;;;;;;;;-146.02;100.00;65310.94;6308294;22;19911;-66
2023/01/01 01:24:53;;;;;;;;;;;;;;;-146.02;100.00;65310.94;6308284;22;19985;-66
2023/01/01 01:27:19;;;;;;;;;;;;;;;-146.02;100.00;65310.94;6307777;22;19945;-66
2023/01/01 01:29:44;;;;;;;;;;;;;;;-146.02;100.00;65310.94;6307449;22;20332;-66
2023/01/01 01:32:10;;;;;;;;;;;;;;;-146.02;100.00;65310.94;6307024;22;19923;-66
2023/01/01 01:34:35;;;;;;;;;;;;;;;-146.02;100.00;65310.94;6308172;22;20308;-66
2023/01/01 01:37:01;;;;;;;;;;;;;;;-146.02;100.00;65310.94;6308150;22;19925;-66
2023/01/01 01:39:26;;;;;;;;;;;;;;;-146.02;100.00;65310.94;6307812;22;20380;-66
2023/01/01 01:41:51;;;;;;;;;;;;;;;-146.02;100.00;65310.94;6307725;22;19990;-66
2023/01/01 01:44:35;;;;;;;;;;;;;;;-146.02;100.00;65310.94;6308083;22;19960;-66
2023/01/01 01:47:01;;;;;;;;;;;;;;;-146.02;100.00;65310.94;6308229;22;19981;-66
2023/01/01 01:49:29;;;;;;;;;;;;;;;-146.02;100.00;65310.94;6308040;22;20350;-67
2023/01/01 01:51:55;;;;;;;;;;;;;;;-146.02;100.00;65310.94;6308707;22;20303;-66
2023/01/01 01:54:21;;;;;;;;;;;;;;;-146.02;100.00;65310.94;6307727;22;19949;-66
2023/01/01 01:56:59;;;;;;;;;;;;;;;-146.02;100.00;65310.94;6307752;22;19907;-66
2023/01/01 01:59:26;;;;;;;;;;;;;;;-146.02;100.00;65310.94;6307869;22;20277;-66
2023/01/01 02:01:52;;;;;;;;;;;;;;;-146.02;100.00;65310.94;6307976;22;20315;-67
2023/01/01 02:04:17;;;;;;;;;;;;;;;-146.02;100.00;65310.94;6308782;22;19953;-65
2023/01/01 02:06:43;;;;;;;;;;;;;;;-146.02;100.00;65310.94;6308352;22;19994;-65
2023/01/01 02:09:08;;;;;;;;;;;;;;;-146.02;100.00;65310.94;6308232;22;19907;-66
2023/01/01 02:11:34;;;;;;;;;;;;;;;-146.02;100.00;65310.94;6307875;22;20277;-66
2023/01/01 02:14:00;;;;;;;;;;;;;;;-146.02;100.00;65310.94;6308121;22;19910;-66
2023/01/01 02:16:44;;;;;;;;;;;;;;;-146.02;100.00;65310.94;6308155;22;19929;-66
2023/01/01 02:19:18;;;;;;;;;;;;;;;-146.02;100.00;65310.94;6308676;22;19922;-66
2023/01/01 02:22:02;;;;;;;;;;;;;;;-146.02;100.00;65310.94;6308324;22;19972;-66
2023/01/01 02:24:39;;;;;;;;;;;;;;;-146.02;100.00;65310.94;6308848;22;19906;-66
2023/01/01 02:27:07;;;;;;;;;;;;;;;-146.02;100.00;65310.94;6308445;22;20288;-66
2023/01/01 02:29:39;;;;;;;;;;;;;;;-146.02;100.00;65310.94;6308300;22;20258;-66
2023/01/01 02:32:14;;;;;;;;;;;;;;;-146.02;100.00;65310.94;6307329;22;19972;-66
2023/01/01 02:34:50;;;;;;;;;;;;;;;-146.02;100.00;65310.94;6308102;22;20307;-66
2023/01/01 02:37:17;;;;;;;;;;;;;;;-146.02;100.00;65310.94;6308432;22;19907;-66
2023/01/01 02:39:51;;;;;;;;;;;;;;;-146.02;100.00;65310.94;6307836;22;19911;-66
2023/01/01 02:42:17;;;;;;;;;;;;;;;-146.02;100.00;65310.94;6309181;22;19911;-67
2023/01/01 02:44:44;;;;;;;;;;;;;;;-146.02;100.00;65310.94;6310227;22;20342;-66
2023/01/01 02:47:11;;;;;;;;;;;;;;;-146.02;100.00;65310.94;6310641;22;19915;-66
2023/01/01 02:49:38;;;;;;;;;;;;;;;-146.02;100.00;65310.94;6310651;22;19992;-66
2023/01/01 02:52:07;;;;;;;;;;;;;;;-146.02;100.00;65310.94;6311210;22;19907;-66
2023/01/01 02:54:55;;;;;;;;;;;;;;;-146.02;100.00;65310.94;6310801;22;19907;-66
2023/01/01 02:57:33;;;;;;;;;;;;;;;-146.02;100.00;65310.94;6310206;22;19946;-66
2023/01/01 03:00:30;;;;;;;;;;;;;;;-146.02;100.00;65310.94;6309904;22;19960;-66
2023/01/01 03:03:01;;;;;;;;;;;;;;;-146.02;100.00;65310.94;6309930;22;19940;-66
2023/01/01 03:05:35;;;;;;;;;;;;;;;-146.02;100.00;65310.94;6310631;22;20285;-66
2023/01/01 03:08:05;;;;;;;;;;;;;;;-146.02;100.00;65310.94;6282908;22;19939;-66
2023/01/01 03:10:49;;;;;;;;;;;;;;;-146.02;100.00;65310.94;6282554;22;19911;-66
2023/01/01 03:13:22;;;;;;;;;;;;;;;-146.02;100.00;65310.94;6310248;22;19961;-66
2023/01/01 03:15:54;;;;;;;;;;;;;;;-146.02;100.00;65310.94;6310027;22;19914;-66
2023/01/01 03:18:23;;;;;;;;;;;;;;;-146.02;100.00;65310.94;6309581;22;19933;-66
2023/01/01 03:20:50;;;;;;;;;;;;;;;-146.02;100.00;65310.94;6309505;22;20284;-66
2023/01/01 03:23:21;;;;;;;;;;;;;;;-146.02;100.00;65310.94;6308943;22;19918;-66
2023/01/01 03:25:48;;;;;;;;;;;;;;;-146.02;100.00;65310.94;6309659;22;19930;-66
2023/01/01 03:28:17;;;;;;;;;;;;;;;-146.02;100.00;65310.94;6309578;22;19907;-66
2023/01/01 03:30:44;;;;;;;;;;;;;;;-146.02;100.00;65310.94;6309105;22;19930;-66
2023/01/01 03:33:28;;;;;;;;;;;;;;;-146.02;100.00;65310.94;6281521;22;20393;-66
2023/01/01 03:35:59;;;;;;;;;;;;;;;-146.02;100.00;65310.94;6309615;22;19911;-66
2023/01/01 03:38:30;;;;;;;;;;;;;;;-146.02;100.00;65310.94;6309631;22;19907;-66
2023/01/01 03:41:00;;;;;;;;;;;;;;;-146.02;100.00;65310.94;6309885;22;19907;-66
2023/01/01 03:43:28;;;;;;;;;;;;;;;-146.02;100.00;65310.94;6283274;22;19907;-66
2023/01/01 03:45:55;;;;;;;;;;;;;;;-146.02;100.00;65310.94;6310930;22;19914;-65
2023/01/01 03:48:20;;;;;;;;;;;;;;;-146.02;100.00;65310.94;6281916;22;19911;-66
2023/01/01 03:50:56;;;;;;;;;;;;;;;-146.02;100.00;65310.94;6308718;22;20230;-66
2023/01/01 03:53:29;;;;;;;;;;;;;;;-146.02;100.00;65310.94;6309024;22;19914;-66
2023/01/01 03:56:15;;;;;;;;;;;;;;;-146.02;100.00;65310.94;6309689;22;19914;-66
2023/01/01 03:58:45;;;;;;;;;;;;;;;-146.02;100.00;65310.94;6309724;22;20010;-66
2023/01/01 04:01:17;;;;;;;;;;;;;;;-146.02;100.00;65310.94;6309350;22;19986;-65
2023/01/01 04:03:42;;;;;;;;;;;;;;;-146.02;100.00;65310.94;6309413;22;19915;-65
2023/01/01 04:06:09;;;;;;;;;;;;;;;-146.02;100.00;65310.94;6309032;22;20300;-65
2023/01/01 04:08:34;;;;;;;;;;;;;;;-146.02;100.00;65310.94;6309394;22;19907;-65
2023/01/01 04:12:00;;;;;;;;;;;;;;;-146.02;100.00;65310.94;6309653;22;19960;-65
2023/01/01 04:13:48;;;;;;;;;;;;;;;-146.02;100.00;65310.94;6308738;22;19922;-65
2023/01/01 04:16:13;;;;;;;;;;;;;;;-146.02;100.00;65310.94;6309098;22;19907;-65
2023/01/01 04:18:39;;;;;;;;;;;;;;;-146.02;100.00;65310.94;6308483;22;19945;-65
2023/01/01 04:21:04;;;;;;;;;;;;;;;-146.02;100.00;65310.94;6308845;22;20208;-65
2023/01/01 04:23:29;;;;;;;;;;;;;;;-146.02;100.00;65310.94;6308661;22;19907;-65
2023/01/01 04:25:54;;;;;;;;;;;;;;;-146.02;100.00;65310.94;6308808;22;19953;-65
2023/01/01 04:28:20;;;;;;;;;;;;;;;-146.02;100.00;65310.94;6281156;22;20323;-67
2023/01/01 04:30:45;;;;;;;;;;;;;;;-146.02;100.00;65310.94;6309292;22;19914;-65
2023/01/01 04:33:10;;;;;;;;;;;;;;;-146.02;100.00;65310.94;6308440;22;19913;-65
2023/01/01 04:35:35;;;;;;;;;;;;;;;-146.02;100.00;65310.94;6310566;22;19907;-65
2023/01/01 04:38:02;;;;;;;;;;;;;;;-146.02;100.00;65310.94;6308919;22;19907;-65
2023/01/01 04:40:27;;;;;;;;;;;;;;;-146.02;100.00;65310.94;6308410;22;19913;-65
2023/01/01 04:42:53;;;;;;;;;;;;;;;-146.02;100.00;65310.94;6308480;22;19986;-65
2023/01/01 04:45:18;;;;;;;;;;;;;;;-146.02;100.00;65310.94;6308636;22;20241;-65
2023/01/01 04:47:44;;;;;;;;;;;;;;;-146.02;100.00;65310.94;6307966;22;19982;-65
2023/01/01 04:50:09;;;;;;;;;;;;;;;-146.02;100.00;65310.94;6308546;22;20017;-65
2023/01/01 04:52:34;;;;;;;;;;;;;;;-146.02;100.00;65310.94;6308606;22;19982;-65
2023/01/01 04:55:00;;;;;;;;;;;;;;;-146.02;100.00;65310.94;6308626;22;19913;-65
2023/01/01 04:57:27;;;;;;;;;;;;;;;-146.02;100.00;65310.94;6308477;22;19907;-65
2023/01/01 04:59:52;;;;;;;;;;;;;;;-146.02;100.00;65310.94;6308761;22;19990;-65
2023/01/01 05:02:18;;;;;;;;;;;;;;;-146.02;100.00;65310.94;6308325;22;20318;-65
2023/01/01 05:04:43;;;;;;;;;;;;;;;-146.02;100.00;65310.94;6308252;22;19962;-65
2023/01/01 05:07:08;;;;;;;;;;;;;;;-146.02;100.00;65310.94;6281241;22;19911;-65
2023/01/01 05:09:33;;;;;;;;;;;;;;;-146.02;100.00;65310.94;6308898;22;19907;-65
2023/01/01 05:11:59;;;;;;;;;;;;;;;-146.02;100.00;65310.94;6308477;22;19911;-65
2023/01/01 05:14:24;;;;;;;;;;;;;;;-146.02;100.00;65310.94;6308115;22;19907;-65
2023/01/01 05:16:49;;;;;;;;;;;;;;;-146.02;100.00;65310.94;6308255;22;19917;-64
2023/01/01 05:19:15;;;;;;;;;;;;;;;-146.02;100.00;65310.94;6308542;22;19906;-64
2023/01/01 05:21:40;;;;;;;;;;;;;;;-146.02;100.00;65310.94;6308091;22;19914;-64
2023/01/01 05:24:06;;;;;;;;;;;;;;;-146.02;100.00;65310.94;6307848;22;19907;-64
2023/01/01 05:26:33;;;;;;;;;;;;;;;-146.02;100.00;65310.94;6308174;22;20208;-64
2023/01/01 05:28:59;;;;;;;;;;;;;;;-146.02;100.00;65310.94;6308402;22;20193;-64
2023/01/01 05:31:26;;;;;;;;;;;;;;;-146.02;100.00;65310.94;6307170;22;19915;-64
2023/01/01 05:33:51;;;;;;;;;;;;;;;-146.02;100.00;65310.94;6280809;22;19907;-64
2023/01/01 05:36:18;;;;;;;;;;;;;;;-146.02;100.00;65310.94;6307789;22;19906;-65
2023/01/01 05:38:44;;;;;;;;;;;;;;;-146.02;100.00;65310.94;6307651;22;20382;-66
2023/01/01 05:41:10;;;;;;;;;;;;;;;-146.02;100.00;65310.94;6308162;22;19992;-66
2023/01/01 05:43:35;;;;;;;;;;;;;;;-146.02;100.00;65310.94;6308112;22;19917;-66
2023/01/01 05:46:06;;;;;;;;;;;;;;;-146.02;100.00;65310.94;6307603;22;20030;-65
2023/01/01 05:48:33;;;;;;;;;;;;;;;-146.02;100.00;65310.94;6307222;22;19958;-66
2023/01/01 05:51:03;;;;;;;;;;;;;;;-146.02;100.00;65310.94;6308030;22;19914;-66
2023/01/01 05:53:29;;;;;;;;;;;;;;;-146.02;100.00;65310.94;6308194;22;19907;-66
2023/01/01 05:55:54;;;;;;;;;;;;;;;-146.02;100.00;65310.94;6308259;22;19907;-66
2023/01/01 05:58:20;;;;;;;;;;;;;;;-146.02;100.00;65310.94;6308628;22;19914;-66
2023/01/01 06:00:45;;;;;;;;;;;;;;;-146.02;100.00;65310.94;6308425;22;20212;-66
2023/01/01 06:03:10;;;;;;;;;;;;;;;-146.02;100.00;65310.94;6308420;22;20292;-66
2023/01/01 06:05:36;;;;;;;;;;;;;;;-146.02;100.00;65310.94;6308551;22;19915;-66
2023/01/01 06:08:01;;;;;;;;;;;;;;;-146.02;100.00;65310.94;6308643;22;19907;-66
2023/01/01 06:10:26;;;;;;;;;;;;;;;-146.02;100.00;65310.94;6308441;22;20233;-66
2023/01/01 06:12:56;;;;;;;;;;;;;;;-146.02;100.00;65310.94;6308574;22;19976;-65
2023/01/01 06:15:21;;;;;;;;;;;;;;;-146.02;100.00;65310.94;6280519;22;19941;-66
2023/01/01 06:17:46;;;;;;;;;;;;;;;-146.02;100.00;65310.94;6310771;22;19906;-66
2023/01/01 06:20:11;;;;;;;;;;;;;;;-146.02;100.00;65310.94;6310859;22;19957;-66
2023/01/01 06:22:37;;;;;;;;;;;;;;;-146.02;100.00;65310.94;6310992;22;19946;-66
2023/01/01 06:25:02;;;;;;;;;;;;;;;-146.02;100.00;65310.94;6311687;22;19911;-66
2023/01/01 06:27:27;;;;;;;;;;;;;;;-146.02;100.00;65310.94;6311026;22;20386;-66
2023/01/01 06:29:53;;;;;;;;;;;;;;;-146.02;100.00;65310.94;6311244;22;19914;-66
2023/01/01 06:32:18;;;;;;;;;;;;;;;-146.02;100.00;65310.94;6310224;22;19910;-66
2023/01/01 06:34:43;;;;;;;;;;;;;;;-146.02;100.00;65310.94;6311102;22;19907;-66
2023/01/01 06:37:08;;;;;;;;;;;;;;;-146.02;100.00;65310.94;6311150;22;19959;-66
2023/01/01 06:39:33;;;;;;;;;;;;;;;-146.02;100.00;65310.94;6310642;22;19953;-66
2023/01/01 06:41:59;;;;;;;;;;;;;;;-146.02;100.00;65310.94;6310926;22;19915;-66
2023/01/01 06:44:24;;;;;;;;;;;;;;;-146.02;100.00;65310.94;6311253;22;19929;-66
2023/01/01 06:46:49;;;;;;;;;;;;;;;-146.02;100.00;65310.94;6311193;22;19959;-66
2023/01/01 06:49:14;;;;;;;;;;;;;;;-146.02;100.00;65310.94;6310937;22;19911;-66
2023/01/01 06:51:41;;;;;;;;;;;;;;;-146.02;100.00;65310.94;6283694;22;19911;-66
2023/01/01 06:54:07;;;;;;;;;;;;;;;-146.02;100.00;65310.94;6311062;22;19907;-66
2023/01/01 06:56:32;;;;;;;;;;;;;;;-146.02;100.00;65310.94;6283722;22;20306;-66
2023/01/01 06:58:58;;;;;;;;;;;;;;;-146.02;100.00;65310.94;6310800;22;19961;-65
2023/01/01 07:01:25;;;;;;;;;;;;;;;-146.02;100.00;65310.94;6311204;22;19918;-66
2023/01/01 07:04:01;;;;;;;;;;;;;;;-146.02;100.00;65310.94;6311605;22;19984;-65
2023/01/01 07:06:27;;;;;;;;;;;;;;;-146.02;100.00;65310.94;6311789;22;19907;-66
2023/01/01 07:08:52;;;;;;;;;;;;;;;-146.02;100.00;65310.94;6312480;22;19911;-66
2023/01/01 07:11:18;;;;;;;;;;;;;;;-146.02;100.00;65310.94;6312341;22;19907;-66
2023/01/01 07:13:43;;;;;;;;;;;;;;;-146.02;100.00;65310.94;6312387;22;19907;-67
2023/01/01 07:16:12;;;;;;;;;;;;;;;-146.02;100.00;65310.94;6311814;22;19993;-66
2023/01/01 07:18:37;;;;;;;;;;;;;;;-146.02;100.00;65310.94;6311814;22;19915;-66
2023/01/01 07:21:03;;;;;;;;;;;;;;;-146.02;100.00;65310.94;6310946;22;19907;-65
2023/01/01 07:23:30;;;;;;;;;;;;;;;-146.02;100.00;65310.94;6311062;22;20213;-65
2023/01/01 07:25:55;;;;;;;;;;;;;;;-146.02;100.00;65310.94;6310711;22;19907;-65
2023/01/01 07:28:22;;;;;;;;;;;;;;;-146.02;100.00;65310.94;6308954;22;20198;-65
2023/01/01 07:30:47;;;;;;;;;;;;;;;-146.02;100.00;65310.94;6309210;22;19922;-65
2023/01/01 07:33:17;;;;;;;;;;;;;;;-146.02;100.00;65310.94;6308644;22;19907;-65
2023/01/01 07:35:45;;;;;;;;;;;;;;;-146.02;100.00;65310.94;6309933;22;19913;-65
2023/01/01 07:38:11;;;;;;;;;;;;;;;-146.02;100.00;65310.94;6309602;22;20261;-65
2023/01/01 07:40:36;;;;;;;;;;;;;;;-146.02;100.00;65310.94;6309671;22;19929;-64
2023/01/01 07:43:01;;;;;;;;;;;;;;;-146.02;100.00;65310.94;6310122;22;19911;-65
2023/01/01 07:45:27;;;;;;;;;;;;;;;-146.02;100.00;65310.94;6309892;22;19960;-65
2023/01/01 07:47:53;;;;;;;;;;;;;;;-146.02;100.00;65310.94;6310154;22;19914;-65
2023/01/01 07:50:19;;;;;;;;;;;;;;;-146.02;100.00;65310.94;6309720;22;19907;-66
2023/01/01 07:52:44;;;;;;;;;;;;;;;-146.02;100.00;65310.94;6309428;22;19986;-65
2023/01/01 07:55:13;;;;;;;;;;;;;;;-146.02;100.00;65310.94;6310286;22;19907;-65
2023/01/01 07:57:39;;;;;;;;;;;;;;;-146.02;100.00;65310.94;6309826;22;19907;-65
2023/01/01 08:00:05;;;;;;;;;;;;;;;-146.02;100.00;65310.94;6310330;22;19906;-65
2023/01/01 08:02:30;;;;;;;;;;;;;;;-146.02;100.00;65310.94;6309694;22;19911;-65
2023/01/01 08:04:55;;;;;;;;;;;;;;;-146.02;100.00;65310.94;6309512;22;19907;-65
2023/01/01 08:07:20;;;;;;;;;;;;;;;-146.02;100.00;65310.94;6309275;22;19994;-65
2023/01/01 08:09:46;;;;;;;;;;;;;;;-146.02;100.00;65310.94;6309614;22;19979;-65
2023/01/01 08:12:11;;;;;;;;;;;;;;;-146.02;100.00;65310.94;6309244;22;19907;-65
2023/01/01 08:14:36;;;;;;;;;;;;;;;-146.02;100.00;65310.94;6309507;22;19907;-65
2023/01/01 08:17:01;;;;;;;;;;;;;;;-146.02;100.00;65310.94;6307297;22;19907;-65
2023/01/01 08:19:27;;;;;;;;;;;;;;;-146.02;100.00;65310.94;6309357;22;19907;-65
2023/01/01 08:21:52;;;;;;;;;;;;;;;-146.02;100.00;65310.94;6308787;22;19910;-65
2023/01/01 08:24:17;;;;;;;;;;;;;;;-146.02;100.00;65310.94;6308947;22;19943;-66
2023/01/01 08:26:42;;;;;;;;;;;;;;;-146.02;100.00;65310.94;6308411;22;20300;-65
2023/01/01 08:29:09;;;;;;;;;;;;;;;-146.02;100.00;65310.94;6282354;22;19997;-66
2023/01/01 08:31:36;;;;;;;;;;;;;;;-146.02;100.00;65310.94;6308000;22;19919;-65
2023/01/01 08:34:01;;;;;;;;;;;;;;;-146.02;100.00;65310.94;6308775;22;19986;-66
2023/01/01 08:36:26;;;;;;;;;;;;;;;-146.02;100.00;65310.94;6308289;22;19907;-65
2023/01/01 08:38:52;;;;;;;;;;;;;;;-146.02;100.00;65310.94;6307863;22;19938;-66
2023/01/01 08:41:17;;;;;;;;;;;;;;;-146.02;100.00;65310.94;6308101;22;19911;-65
2023/01/01 08:43:42;;;;;;;;;;;;;;;-146.02;100.00;65310.94;6308440;22;19917;-66
2023/01/01 08:46:07;;;;;;;;;;;;;;;-146.02;100.00;65310.94;6308876;22;19930;-65
2023/01/01 08:48:33;;;;;;;;;;;;;;;-146.02;100.00;65310.94;6309036;22;19914;-65
2023/01/01 08:50:59;;;;;;;;;;;;;;;-146.02;100.00;65310.94;6308612;22;19914;-63
2023/01/01 08:53:24;;;;;;;;;;;;;;;-146.02;100.00;65310.94;6307534;22;19986;-63
2023/01/01 08:55:57;;;;;;;;;;;;;;;-146.02;100.00;65310.94;6308237;22;19911;-62
2023/01/01 08:58:22;;;;;;;;;;;;;;;-146.02;100.00;65310.94;6307746;22;19907;-62
2023/01/01 09:00:48;;;;;;;;;;;;;;;-146.02;100.00;65310.94;6308458;22;19911;-60
2023/01/01 09:03:13;;;;;;;;;;;;;;;-146.02;100.00;65310.94;6307927;22;20326;-62
2023/01/01 09:05:38;;;;;;;;;;;;;;;-146.02;100.00;65310.94;6307882;22;20219;-62
2023/01/01 09:08:03;;;;;;;;;;;;;;;-146.02;100.00;65310.94;6308450;22;19913;-62
2023/01/01 09:10:29;;;;;;;;;;;;;;;-146.02;100.00;65310.94;6307974;22;19947;-62
2023/01/01 09:12:54;;;;;;;;;;;;;;;-146.02;100.00;65310.94;6308141;22;19914;-62
2023/01/01 09:15:19;;;;;;;;;;;;;;;-146.02;100.00;65310.94;6308076;22;20045;-62
2023/01/01 09:17:45;;;;;;;;;;;;;;;-146.02;100.00;65310.94;6307704;22;19907;-62
2023/01/01 09:20:10;;;;;;;;;;;;;;;-146.02;100.00;65310.94;6307881;22;19911;-62
2023/01/01 09:22:35;;;;;;;;;;;;;;;-146.02;100.00;65310.94;6307758;22;19911;-62
2023/01/01 09:25:01;;;;;;;;;;;;;;;-146.02;100.00;65310.94;6308078;22;20245;-62
2023/01/01 09:27:26;;;;;;;;;;;;;;;-146.02;100.00;65310.94;6307493;22;19986;-62
2023/01/01 09:29:51;;;;;;;;;;;;;;;-146.02;100.00;65310.94;6307686;22;19907;-62
2023/01/01 09:32:18;;;;;;;;;;;;;;;-146.02;100.00;65310.94;6307311;22;19907;-62
2023/01/01 09:34:43;;;;;;;;;;;;;;;-146.02;100.00;65310.94;6307549;22;19960;-62
2023/01/01 09:37:09;;;;;;;;;;;;;;;-146.02;100.00;65310.94;6307661;22;19986;-62
2023/01/01 09:39:34;;;;;;;;;;;;;;;-146.02;100.00;65310.94;6307924;22;19907;-63
2023/01/01 09:43:59;;;;;;;;;;;;;;;18.55;16.68;99888.78;5070353;28;20369;-66
2023/01/01 09:46:25;;;;;;;;;;;;;;;18.91;16.57;99885.50;5070578;28;19929;-66
2023/01/01 09:48:59;;;;;;;;;;;;;;;18.44;15.95;99897.91;5085681;28;19919;-65
2023/01/01 09:51:25;;;;;;;;;;;;;;;18.43;16.13;99901.72;5069404;28;19919;-65
2023/01/01 09:54:00;;;;;;;;;;;;;;;18.25;15.87;99896.69;5069968;28;19917;-65
2023/01/01 09:56:26;;;;;;;;;;;;;;;18.27;16.04;99906.19;5069810;28;19963;-65
2023/01/01 09:58:52;;;;;;;;;;;;;;;18.16;15.96;99904.47;5068770;28;20007;-65
2023/01/01 10:01:38;;;;;;;;;;;;;;;18.17;16.00;99908.84;5068854;28;19974;-65
2023/01/01 10:04:22;;;;;;;;;;;;;;;18.88;17.05;99907.78;5070013;28;19920;-65
2023/01/01 10:06:57;;;;;;;;;;;;;;;18.63;16.09;99911.09;5069767;28;19913;-65
2023/01/01 10:09:32;;;;;;;;;;;;;;;18.94;16.36;99913.00;5069420;28;19921;-65
2023/01/01 10:11:57;;;;;;;;;;;;;;;19.18;16.16;99909.03;5072082;28;20011;-65
2023/01/01 10:14:43;;;;;;;;;;;;;;;19.18;15.94;99912.56;5077904;28;20289;-65
2023/01/01 10:17:12;;;;;;;;;;;;;;;19.17;15.78;99915.56;5069767;28;19913;-65
2023/01/01 10:19:43;;;;;;;;;;;;;;;19.25;15.73;99913.16;5068307;28;19958;-65
2023/01/01 10:22:20;;;;;;;;;;;;;;;19.18;15.87;99925.38;5069324;28;19917;-65
2023/01/01 10:25:07;;;;;;;;;;;;;;;19.13;15.78;99913.38;5069799;28;19913;-66
2023/01/01 10:27:35;;;;;;;;;;;;;;;19.22;15.67;99915.59;5069684;28;19963;-69
2023/01/01 10:30:01;;;;;;;;;;;;;;;19.47;15.85;99925.78;5069591;28;19917;-67
2023/01/01 10:32:29;;;;;;;;;;;;;;;19.57;15.83;99925.81;5068746;28;20003;-65
2023/01/01 10:34:55;;;;;;;;;;;;;;;19.33;15.82;99922.72;5069317;28;19912;-64
2023/01/01 10:37:21;;;;;;;;;;;;;;;19.26;15.82;99925.69;5069257;28;20269;-64
2023/01/01 10:39:46;;;;;;;;;;;;;;;20.05;16.53;99920.28;5062102;28;19962;-64
2023/01/01 10:42:13;;;;;;;;;;;;;;;19.80;15.95;99926.47;5061376;28;19928;-64
2023/01/01 10:44:38;;;;;;;;;;;;;;;19.87;15.61;99922.44;5089419;28;19917;-64
2023/01/01 10:47:24;;;;;;;;;;;;;;;20.01;15.52;99927.34;5089247;28;20365;-64
2023/01/01 10:50:07;;;;;;;;;;;;;;;20.52;16.05;99932.03;5089001;28;19938;-64
2023/01/01 10:52:34;;;;;;;;;;;;;;;20.25;15.04;99936.66;5089121;28;19912;-64
2023/01/01 10:55:00;;;;;;;;;;;;;;;20.13;15.40;99927.91;5075983;28;19918;-64
2023/01/01 10:57:39;;;;;;;;;;;;;;;20.11;15.56;99927.34;5075919;28;19912;-64
2023/01/01 11:00:23;;;;;;;;;;;;;;;20.29;15.37;99920.56;5075671;28;20317;-64
2023/01/01 11:03:07;;;;;;;;;;;;;;;20.22;14.73;99920.00;5075568;28;19923;-65
2023/01/01 11:05:32;;;;;;;;;;;;;;;20.53;15.03;99917.31;5071454;28;19912;-65
2023/01/01 11:07:57;;;;;;;;;;;;;;;20.36;15.29;99923.84;5062267;28;20326;-65
2023/01/01 11:10:28;;;;;;;;;;;;;;;20.42;14.89;99913.75;5066813;28;19924;-65
2023/01/01 11:12:53;;;;;;;;;;;;;;;20.67;15.29;99921.97;5085574;28;19919;-65
2023/01/01 11:15:21;;;;;;;;;;;;;;;20.65;15.46;99917.88;5075576;28;19912;-65
2023/01/01 11:17:46;;;;;;;;;;;;;;;20.51;15.28;99914.84;5075162;28;19916;-65
2023/01/01 11:20:17;;;;;;;;;;;;;;;20.60;15.95;99923.31;5073275;28;20277;-65
2023/01/01 11:22:47;;;;;;;;;;;;;;;20.33;14.84;99923.56;5055022;28;20261;-65
2023/01/01 11:25:18;;;;;;;;;;;;;;;20.87;15.42;99931.22;5055296;28;20003;-65
2023/01/01 11:27:44;;;;;;;;;;;;;;;20.75;14.71;99922.53;5055370;28;19917;-65
2023/01/01 11:30:19;;;;;;;;;;;;;;;21.26;14.83;99925.13;5055323;28;20426;-65
2023/01/01 11:32:44;;;;;;;;;;;;;;;21.20;15.05;99926.25;5054810;28;19920;-65
2023/01/01 11:35:16;;;;;;;;;;;;;;;21.21;14.29;99922.41;5066501;28;19928;-65
2023/01/01 11:37:44;;;;;;;;;;;;;;;21.05;14.16;99922.44;5075105;28;19977;-65
2023/01/01 11:40:16;;;;;;;;;;;;;;;20.81;14.37;99927.69;5059564;28;19982;-65
2023/01/01 11:42:46;;;;;;;;;;;;;;;20.76;14.37;99924.13;5036745;28;19924;-65
2023/01/01 11:45:30;;;;;;;;;;;;;;;21.08;14.56;99930.09;5055001;28;19975;-65
2023/01/01 11:47:57;;;;;;;;;;;;;;;20.97;14.12;99928.50;5036846;28;19919;-64
2023/01/01 11:50:28;;;;;;;;;;;;;;;21.20;14.20;99921.59;5054692;28;20288;-65
2023/01/01 11:52:57;;;;;;;;;;;;;;;21.32;14.29;99920.47;5054821;28;19912;-66
2023/01/01 11:55:36;;;;;;;;;;;;;;;21.68;14.23;99915.69;5054507;28;20292;-66
2023/01/01 11:58:20;;;;;;;;;;;;;;;21.01;13.82;99907.72;5054603;28;19966;-65
2023/01/01 12:00:48;;;;;;;;;;;;;;;20.70;13.99;99917.88;5054797;28;20351;-65
2023/01/01 12:03:21;;;;;;;;;;;;;;;20.80;13.68;99926.06;5061707;28;19916;-65
2023/01/01 12:06:03;;;;;;;;;;;;;;;21.16;15.22;99931.44;5073596;28;19916;-65
2023/01/01 12:08:43;;;;;;;;;;;;;;;20.88;14.26;99941.06;5074229;28;20361;-65
2023/01/01 12:11:18;;;;;;;;;;;;;;;20.85;15.09;99947.06;5074155;28;19920;-65
2023/01/01 12:13:47;;;;;;;;;;;;;;;21.11;14.73;99955.22;5084711;28;19917;-65
2023/01/01 12:16:19;;;;;;;;;;;;;;;20.68;14.94;99959.06;5074283;28;20438;-65
2023/01/01 12:18:47;;;;;;;;;;;;;;;20.33;14.27;99968.03;5054273;28;20284;-65
2023/01/01 12:21:18;;;;;;;;;;;;;;;19.67;14.96;99977.63;5053802;28;19917;-65
2023/01/01 12:23:43;;;;;;;;;;;;;;;19.56;15.09;99983.28;5053762;28;20329;-65
2023/01/01 12:26:15;;;;;;;;;;;;;;;20.38;15.30;99975.41;5053981;28;19966;-66
2023/01/01 12:28:55;;;;;;;;;;;;;;;20.49;14.24;99985.25;5053656;28;19916;-65
2023/01/01 12:31:29;;;;;;;;;;;;;;;20.76;15.78;99998.63;5046400;28;20300;-65
2023/01/01 12:34:04;;;;;;;;;;;;;;;20.24;14.50;99983.28;5073951;28;19917;-65